createdAt,value
2023-03-29T00:02:07.680Z,100822.81
2023-03-29T00:04:35.724Z,100824.69
2023-03-29T00:07:04.908Z,100831.84
2023-03-29T00:09:33.598Z,100830.44
2023-03-29T00:12:01.757Z,100829.84
2023-03-29T00:14:31.103Z,100836.00
2023-03-29T00:16:58.901Z,100837.94
2023-03-29T00:19:26.469Z,100846.78
2023-03-29T00:21:53.666Z,100838.44
2023-03-29T00:24:21.555Z,100842.75
2023-03-29T00:26:48.793Z,100842.06
2023-03-29T00:29:16.165Z,100839.63
2023-03-29T00:31:46.172Z,100843.25
2023-03-29T00:34:13.499Z,100845.09
2023-03-29T00:36:40.684Z,100845.25
2023-03-29T00:39:07.723Z,100837.69
2023-03-29T00:41:34.869Z,100835.22
2023-03-29T00:44:04.390Z,100827.63
2023-03-29T00:46:32.574Z,100839.09
2023-03-29T00:49:07.355Z,100838.41
2023-03-29T00:51:38.533Z,100830.72
2023-03-29T00:54:07.103Z,100843.97
2023-03-29T00:56:38.830Z,100835.34
2023-03-29T00:59:11.005Z,100835.53
2023-03-29T01:01:58.081Z,100833.25
2023-03-29T01:04:45.677Z,100828.09
2023-03-29T01:07:21.584Z,100834.25
2023-03-29T01:09:55.669Z,100827.50
2023-03-29T01:12:33.038Z,100825.91
2023-03-29T01:15:06.323Z,100815.59
2023-03-29T01:17:33.446Z,100820.88
2023-03-29T01:20:10.930Z,100816.66
2023-03-29T01:23:02.523Z,100826.50
2023-03-29T01:26:17.029Z,100821.22
2023-03-29T01:28:59.811Z,100822.28
2023-03-29T01:31:44.053Z,100825.06
2023-03-29T01:34:18.319Z,100827.84
2023-03-29T01:36:54.933Z,100833.13
2023-03-29T01:39:22.263Z,100824.63
2023-03-29T01:42:14.599Z,100820.88
2023-03-29T01:44:56.626Z,100833.47
2023-03-29T01:47:36.401Z,100845.75
2023-03-29T01:50:13.273Z,100842.31
2023-03-29T01:52:47.702Z,100846.75
2023-03-29T01:55:33.697Z,100849.53
2023-03-29T01:58:03.238Z,100844.31
2023-03-29T02:00:32.295Z,100832.47
2023-03-29T02:03:03.444Z,100843.69
2023-03-29T02:05:31.832Z,100845.59
2023-03-29T02:08:03.168Z,100843.09
2023-03-29T02:10:30.982Z,100840.63
2023-03-29T02:12:58.732Z,100842.47
2023-03-29T02:15:25.938Z,100841.69
2023-03-29T02:17:53.119Z,100843.47
2023-03-29T02:20:32.371Z,100853.13
2023-03-29T02:23:09.257Z,100842.78
2023-03-29T02:25:38.073Z,100849.75
2023-03-29T02:28:07.089Z,100846.22
2023-03-29T02:30:47.430Z,100851.50
2023-03-29T02:33:22.019Z,100846.28
2023-03-29T02:35:56.979Z,100838.47
2023-03-29T02:38:25.818Z,100834.94
2023-03-29T02:40:53.199Z,100838.31
2023-03-29T02:43:22.625Z,100840.06
2023-03-29T02:45:52.446Z,100840.94
2023-03-29T02:48:23.716Z,100842.63
2023-03-29T02:50:56.412Z,100844.28
2023-03-29T02:53:29.975Z,100840.69
2023-03-29T02:55:57.047Z,100833.72
2023-03-29T02:58:27.086Z,100825.81
2023-03-29T03:00:56.052Z,100826.72
2023-03-29T03:03:23.342Z,100820.41
2023-03-29T03:05:52.657Z,100823.56
2023-03-29T03:08:19.982Z,100827.66
2023-03-29T03:10:47.882Z,100828.25
2023-03-29T03:13:14.871Z,100828.75
2023-03-29T03:15:43.137Z,100826.75
2023-03-29T03:18:10.979Z,100831.59
2023-03-29T03:20:38.092Z,100831.13
2023-03-29T03:23:05.101Z,100821.94
2023-03-29T03:25:32.497Z,100826.59
2023-03-29T03:27:59.704Z,100827.88
2023-03-29T03:30:27.402Z,100823.75
2023-03-29T03:32:57.794Z,100817.09
2023-03-29T03:35:25.340Z,100819.03
2023-03-29T03:37:52.328Z,100821.00
2023-03-29T03:40:19.195Z,100818.44
2023-03-29T03:42:46.203Z,100816.81
2023-03-29T03:45:13.278Z,100822.19
2023-03-29T03:47:41.212Z,100818.69
2023-03-29T03:50:09.317Z,100831.06
2023-03-29T03:52:36.556Z,100818.09
2023-03-29T03:55:03.591Z,100819.72
2023-03-29T03:57:33.173Z,100805.31
2023-03-29T04:00:00.298Z,100817.88
2023-03-29T04:02:27.713Z,100809.75
2023-03-29T04:04:55.018Z,100810.47
2023-03-29T04:07:22.078Z,100818.06
2023-03-29T04:09:49.229Z,100827.38
2023-03-29T04:12:16.419Z,100839.13
2023-03-29T04:14:43.647Z,100817.66
2023-03-29T04:17:10.767Z,100810.28
2023-03-29T04:19:43.107Z,100815.78
2023-03-29T04:22:10.237Z,100813.03
2023-03-29T04:24:37.157Z,100820.00
2023-03-29T04:27:04.242Z,100810.84
2023-03-29T04:29:31.692Z,100820.25
2023-03-29T04:31:58.682Z,100815.16
2023-03-29T04:34:25.884Z,100812.28
2023-03-29T04:36:53.060Z,100804.25
2023-03-29T04:39:20.077Z,100809.81
2023-03-29T04:41:50.573Z,100829.81
2023-03-29T04:44:17.718Z,100817.34
2023-03-29T04:46:44.841Z,100827.81
2023-03-29T04:49:11.895Z,100816.78
2023-03-29T04:51:39.334Z,100829.44
2023-03-29T04:54:06.745Z,100825.19
2023-03-29T04:56:33.739Z,100822.84
2023-03-29T04:59:00.750Z,100830.03
2023-03-29T05:01:27.719Z,100834.84
2023-03-29T05:03:54.856Z,100827.28
2023-03-29T05:06:22.029Z,100828.81
2023-03-29T05:08:49.090Z,100848.34
2023-03-29T05:11:16.763Z,100845.56
2023-03-29T05:13:43.810Z,100844.00
2023-03-29T05:16:11.393Z,100859.44
2023-03-29T05:18:38.502Z,100852.44
2023-03-29T05:21:06.631Z,100842.72
2023-03-29T05:23:34.518Z,100848.78
2023-03-29T05:26:01.584Z,100855.81
2023-03-29T05:28:28.709Z,100860.63
2023-03-29T05:31:04.737Z,100869.97
2023-03-29T05:33:32.379Z,100863.50
2023-03-29T05:36:08.916Z,100865.78
2023-03-29T05:38:36.017Z,100865.31
2023-03-29T05:41:03.435Z,100862.09
2023-03-29T05:43:31.075Z,100872.91
2023-03-29T05:45:58.274Z,100863.41
2023-03-29T05:48:26.274Z,100857.00
2023-03-29T05:50:55.541Z,100864.34
2023-03-29T05:53:24.416Z,100862.88
2023-03-29T05:55:51.974Z,100865.69
2023-03-29T05:58:21.814Z,100855.44
2023-03-29T06:00:50.111Z,100857.91
2023-03-29T06:03:21.111Z,100848.97
2023-03-29T06:05:55.222Z,100843.50
2023-03-29T06:08:22.517Z,100851.59
2023-03-29T06:10:50.502Z,100831.22
2023-03-29T06:13:17.702Z,100834.03
2023-03-29T06:15:45.245Z,100833.53
2023-03-29T06:18:12.658Z,100834.34
2023-03-29T06:20:39.750Z,100829.28
2023-03-29T06:23:08.192Z,100823.78
2023-03-29T06:25:35.564Z,100838.84
2023-03-29T06:28:02.901Z,100832.19
2023-03-29T06:30:29.879Z,100810.03
2023-03-29T06:32:59.805Z,100807.56
2023-03-29T06:35:27.367Z,100807.41
2023-03-29T06:37:54.608Z,100810.22
2023-03-29T06:40:23.056Z,100803.66
2023-03-29T06:42:51.366Z,100809.59
2023-03-29T06:45:19.684Z,100809.72
2023-03-29T06:47:47.581Z,100815.09
2023-03-29T06:50:14.890Z,100803.78
2023-03-29T06:52:42.012Z,100801.94
2023-03-29T06:55:10.078Z,100823.03
2023-03-29T06:57:37.630Z,100791.31
2023-03-29T07:00:15.541Z,100804.91
2023-03-29T07:02:42.829Z,100810.63
2023-03-29T07:05:13.694Z,100807.91
2023-03-29T07:08:00.504Z,100794.41
2023-03-29T07:10:32.876Z,100805.47
2023-03-29T07:13:02.225Z,100812.78
2023-03-29T07:15:29.584Z,100808.44
2023-03-29T07:17:57.700Z,100803.97
2023-03-29T07:20:27.320Z,100805.06
2023-03-29T07:22:57.678Z,100816.03
2023-03-29T07:25:26.128Z,100800.53
2023-03-29T07:27:54.009Z,100809.38
2023-03-29T07:30:24.061Z,100794.78
2023-03-29T07:32:52.594Z,100797.06
2023-03-29T07:35:20.192Z,100788.34
2023-03-29T07:37:47.707Z,100799.19
2023-03-29T07:40:23.845Z,100794.53
2023-03-29T07:42:54.359Z,100809.25
2023-03-29T07:45:26.625Z,100801.75
2023-03-29T07:47:57.522Z,100792.13
2023-03-29T07:50:26.009Z,100798.69
2023-03-29T07:52:53.528Z,100789.88
2023-03-29T07:55:20.831Z,100796.53
2023-03-29T07:57:49.600Z,100793.25
2023-03-29T08:00:17.708Z,100789.81
2023-03-29T08:02:46.876Z,100793.13
2023-03-29T08:05:18.960Z,100827.03
2023-03-29T08:07:50.935Z,100811.84
2023-03-29T08:10:22.514Z,100794.53
2023-03-29T08:12:50.554Z,100796.47
2023-03-29T08:15:17.875Z,100805.03
2023-03-29T08:17:47.025Z,100797.19
2023-03-29T08:20:18.561Z,100828.88
2023-03-29T08:22:45.702Z,100808.75
2023-03-29T08:25:13.052Z,100812.44
2023-03-29T08:27:40.344Z,100800.84
2023-03-29T08:30:09.658Z,100801.91
2023-03-29T08:32:37.733Z,100798.06
2023-03-29T08:35:06.843Z,100808.47
2023-03-29T08:37:34.107Z,100811.22
2023-03-29T08:40:01.981Z,100808.97
2023-03-29T08:43:06.362Z,100805.22
2023-03-29T08:45:53.572Z,100800.66
2023-03-29T08:48:37.953Z,100801.72
2023-03-29T08:51:28.464Z,100797.41
2023-03-29T08:54:02.471Z,100803.22
2023-03-29T08:56:34.255Z,100804.63
2023-03-29T08:59:01.771Z,100813.38
2023-03-29T09:01:34.401Z,100811.53
2023-03-29T09:04:10.184Z,100834.72
2023-03-29T09:06:40.172Z,100820.28
2023-03-29T09:09:15.945Z,100824.13
2023-03-29T09:12:02.067Z,100819.59
2023-03-29T09:14:57.844Z,100806.59
2023-03-29T09:17:49.681Z,100816.44
2023-03-29T09:20:51.793Z,100821.09
2023-03-29T09:23:30.848Z,100819.22
2023-03-29T09:26:28.575Z,100822.94
2023-03-29T09:28:55.565Z,100819.50
2023-03-29T09:31:28.689Z,100824.19
2023-03-29T09:34:01.936Z,100811.19
2023-03-29T09:36:47.573Z,100814.84
2023-03-29T09:39:16.504Z,100815.81
2023-03-29T09:41:52.906Z,100818.38
2023-03-29T09:44:30.864Z,100807.66
2023-03-29T09:47:06.516Z,100824.88
2023-03-29T09:49:38.447Z,100831.84
2023-03-29T09:52:11.703Z,100794.81
2023-03-29T09:54:38.946Z,100804.63
2023-03-29T09:57:06.112Z,100798.66
2023-03-29T09:59:33.123Z,100818.78
2023-03-29T10:02:08.683Z,100803.28
2023-03-29T10:04:37.035Z,100806.53
2023-03-29T10:07:04.921Z,100797.41
2023-03-29T10:09:33.187Z,100793.19
2023-03-29T10:12:05.212Z,100791.59
2023-03-29T10:14:43.764Z,100792.84
2023-03-29T10:17:20.190Z,100785.63
2023-03-29T10:19:53.244Z,100781.53
2023-03-29T10:22:25.810Z,100793.84
2023-03-29T10:24:55.306Z,100785.25
2023-03-29T10:27:26.259Z,100779.97
2023-03-29T10:29:54.741Z,100787.06
2023-03-29T10:32:33.749Z,100783.31
2023-03-29T10:35:35.130Z,100788.44
2023-03-29T10:38:07.944Z,100788.66
2023-03-29T10:40:35.958Z,100777.16
2023-03-29T10:43:22.742Z,100773.69
2023-03-29T10:45:51.972Z,100769.59
2023-03-29T10:48:19.583Z,100760.16
2023-03-29T10:50:53.199Z,100763.94
2023-03-29T10:53:27.819Z,100753.50
2023-03-29T10:55:54.836Z,100738.59
2023-03-29T10:58:49.767Z,100745.41
2023-03-29T11:01:27.423Z,100743.09
2023-03-29T11:04:12.459Z,100736.91
2023-03-29T11:07:05.703Z,100730.16
2023-03-29T11:09:54.394Z,100720.72
2023-03-29T11:12:43.363Z,100730.81
2023-03-29T11:15:19.364Z,100731.22
2023-03-29T11:18:12.460Z,100731.81
2023-03-29T11:20:43.338Z,100726.66
2023-03-29T11:23:35.080Z,100712.41
2023-03-29T11:26:25.346Z,100717.84
2023-03-29T11:29:12.002Z,100714.97
2023-03-29T11:31:58.258Z,100706.75
2023-03-29T11:35:05.190Z,100700.25
2023-03-29T11:37:54.126Z,100714.28
2023-03-29T11:40:39.732Z,100711.22
2023-03-29T11:43:15.452Z,100713.28
2023-03-29T11:45:52.759Z,100701.78
2023-03-29T11:48:26.192Z,100696.88
2023-03-29T11:51:10.896Z,100711.00
2023-03-29T11:53:46.695Z,100691.91
2023-03-29T11:56:19.741Z,100685.31
2023-03-29T11:58:53.933Z,100673.78
2023-03-29T12:01:45.276Z,100662.88
2023-03-29T12:04:26.812Z,100673.19
2023-03-29T12:07:06.441Z,100643.16
2023-03-29T12:09:51.308Z,100641.75
2023-03-29T12:12:36.831Z,100652.16
2023-03-29T12:15:11.014Z,100664.00
2023-03-29T12:17:46.714Z,100637.63
2023-03-29T12:20:31.941Z,100638.28
2023-03-29T12:22:59.337Z,100652.06
2023-03-29T12:25:44.666Z,100635.81
2023-03-29T12:28:47.474Z,100626.88
2023-03-29T12:31:24.669Z,100627.09
2023-03-29T12:34:09.256Z,100627.13
2023-03-29T12:37:02.116Z,100639.13
2023-03-29T12:39:31.592Z,100621.75
2023-03-29T12:42:16.383Z,100638.78
2023-03-29T12:44:51.702Z,100621.63
2023-03-29T12:47:24.806Z,100633.94
2023-03-29T12:49:57.558Z,100623.50
2023-03-29T12:52:34.175Z,100624.94
2023-03-29T12:55:04.658Z,100630.34
2023-03-29T12:58:00.543Z,100639.81
2023-03-29T13:00:34.253Z,100654.78
2023-03-29T13:03:20.047Z,100639.50
2023-03-29T13:05:47.330Z,100628.66
2023-03-29T13:08:26.334Z,100628.47
2023-03-29T13:10:55.928Z,100639.69
2023-03-29T13:13:29.796Z,100636.81
2023-03-29T13:16:09.802Z,100632.38
2023-03-29T13:18:58.625Z,100627.44
2023-03-29T13:21:47.172Z,100628.84
2023-03-29T13:24:29.126Z,100638.91
2023-03-29T13:27:25.313Z,100632.47
2023-03-29T13:30:15.709Z,100619.28
2023-03-29T13:33:08.859Z,100637.19
2023-03-29T13:35:46.218Z,100624.97
2023-03-29T13:38:21.489Z,100631.59
2023-03-29T13:41:07.441Z,100637.03
2023-03-29T13:43:54.714Z,100646.25
2023-03-29T13:46:41.100Z,100636.97
2023-03-29T13:49:28.561Z,100647.28
2023-03-29T13:52:12.696Z,100642.63
2023-03-29T13:54:58.320Z,100639.16
2023-03-29T13:57:38.589Z,100643.03
2023-03-29T14:00:20.465Z,100641.88
2023-03-29T14:02:58.316Z,100626.78
2023-03-29T14:05:35.567Z,100634.34
2023-03-29T14:08:09.867Z,100622.84
2023-03-29T14:10:42.309Z,100622.16
2023-03-29T14:13:18.444Z,100631.00
2023-03-29T14:16:09.347Z,100617.72
2023-03-29T14:18:44.810Z,100621.06
2023-03-29T14:21:14.261Z,100623.00
2023-03-29T14:23:44.973Z,100617.97
2023-03-29T14:26:14.758Z,100617.41
2023-03-29T14:28:50.724Z,100613.53
2023-03-29T14:31:18.810Z,100618.13
2023-03-29T14:33:46.181Z,100629.03
2023-03-29T14:36:18.081Z,100627.47
2023-03-29T14:38:51.381Z,100612.72
2023-03-29T14:41:18.419Z,100624.81
2023-03-29T14:43:47.486Z,100620.03
2023-03-29T14:46:18.176Z,100630.19
2023-03-29T14:48:45.894Z,100621.91
2023-03-29T14:51:13.115Z,100621.53
2023-03-29T14:53:41.859Z,100637.34
2023-03-29T14:56:13.666Z,100630.00
2023-03-29T14:58:49.195Z,100623.09
2023-03-29T15:01:19.285Z,100625.81
2023-03-29T15:04:02.270Z,100642.94
2023-03-29T15:06:31.032Z,100642.31
2023-03-29T15:09:05.235Z,100646.03
2023-03-29T15:11:34.547Z,100648.16
2023-03-29T15:14:14.559Z,100646.78
2023-03-29T15:16:44.219Z,100652.91
2023-03-29T15:19:18.802Z,100655.97
2023-03-29T15:21:48.670Z,100651.19
2023-03-29T15:24:29.711Z,100646.47
2023-03-29T15:27:01.599Z,100659.13
2023-03-29T15:29:37.302Z,100653.25
2023-03-29T15:32:04.579Z,100644.22
2023-03-29T15:34:33.510Z,100650.53
2023-03-29T15:37:02.113Z,100647.31
2023-03-29T15:39:29.742Z,100637.22
2023-03-29T15:41:57.905Z,100643.22
2023-03-29T15:44:32.332Z,100632.81
2023-03-29T15:47:00.106Z,100622.00
2023-03-29T15:49:27.379Z,100633.38
2023-03-29T15:51:54.562Z,100626.53
2023-03-29T15:54:25.002Z,100625.91
2023-03-29T15:56:55.649Z,100599.00
2023-03-29T15:59:23.545Z,100594.91
2023-03-29T16:01:50.996Z,100591.91
2023-03-29T16:04:20.138Z,100593.91
2023-03-29T16:06:49.545Z,100596.13
2023-03-29T16:09:17.336Z,100589.66
2023-03-29T16:11:45.759Z,100593.34
2023-03-29T16:14:23.246Z,100605.72
2023-03-29T16:16:51.647Z,100616.69
2023-03-29T16:19:19.563Z,100623.84
2023-03-29T16:21:46.645Z,100592.53
2023-03-29T16:24:24.892Z,100615.66
2023-03-29T16:26:55.495Z,100604.84
2023-03-29T16:29:23.820Z,100614.28
2023-03-29T16:31:51.495Z,100611.88
2023-03-29T16:34:19.426Z,100610.94
2023-03-29T16:36:47.977Z,100610.94
2023-03-29T16:39:16.298Z,100602.09
2023-03-29T16:41:45.367Z,100601.16
2023-03-29T16:44:23.814Z,100591.56
2023-03-29T16:46:54.113Z,100588.13
2023-03-29T16:49:21.820Z,100581.06
2023-03-29T16:51:48.851Z,100596.94
2023-03-29T16:54:20.210Z,100606.28
2023-03-29T16:56:47.504Z,100599.16
2023-03-29T16:59:15.525Z,100597.34
2023-03-29T17:01:42.999Z,100593.06
2023-03-29T17:04:10.285Z,100605.88
2023-03-29T17:06:37.345Z,100588.31
2023-03-29T17:09:05.335Z,100593.56
2023-03-29T17:11:32.541Z,100594.00
2023-03-29T17:14:00.366Z,100596.94
2023-03-29T17:16:29.351Z,100603.13
2023-03-29T17:19:00.614Z,100606.50
2023-03-29T17:21:29.142Z,100610.06
2023-03-29T17:23:56.261Z,100614.25
2023-03-29T17:26:23.422Z,100613.34
2023-03-29T17:28:50.641Z,100605.53
2023-03-29T17:31:19.572Z,100608.06
2023-03-29T17:33:47.687Z,100604.38
2023-03-29T17:36:14.824Z,100592.31
2023-03-29T17:38:43.223Z,100589.69
2023-03-29T17:41:10.421Z,100574.97
2023-03-29T17:43:37.414Z,100568.97
2023-03-29T17:46:04.910Z,100566.56
2023-03-29T17:48:33.145Z,100560.69
2023-03-29T17:51:00.235Z,100548.59
2023-03-29T17:53:27.589Z,100584.75
2023-03-29T17:55:54.744Z,100563.84
2023-03-29T17:58:21.870Z,100574.56
2023-03-29T18:00:49.051Z,100572.41
2023-03-29T18:03:19.034Z,100589.09
2023-03-29T18:05:46.296Z,100590.88
2023-03-29T18:08:15.139Z,100601.06
2023-03-29T18:10:42.471Z,100602.94
2023-03-29T18:13:13.981Z,100603.91
2023-03-29T18:15:41.186Z,100604.72
2023-03-29T18:18:08.728Z,100595.28
2023-03-29T18:20:35.813Z,100590.78
2023-03-29T18:23:03.033Z,100592.25
2023-03-29T18:25:30.219Z,100598.22
2023-03-29T18:27:57.319Z,100587.72
2023-03-29T18:30:27.980Z,100590.13
2023-03-29T18:32:55.280Z,100595.38
2023-03-29T18:35:22.756Z,100596.09
2023-03-29T18:37:49.829Z,100588.22
2023-03-29T18:40:20.523Z,100588.22
2023-03-29T18:42:47.435Z,100597.69
2023-03-29T18:45:14.431Z,100593.38
2023-03-29T18:47:41.419Z,100590.66
2023-03-29T18:50:09.916Z,100582.88
2023-03-29T18:52:37.941Z,100582.13
2023-03-29T18:55:07.379Z,100570.88
2023-03-29T18:57:34.463Z,100566.69
2023-03-29T19:00:01.503Z,100580.03
2023-03-29T19:02:30.585Z,100586.34
2023-03-29T19:04:57.724Z,100567.34
2023-03-29T19:07:24.678Z,100568.28
2023-03-29T19:09:51.901Z,100563.25
2023-03-29T19:12:18.864Z,100571.31
2023-03-29T19:14:45.923Z,100563.06
2023-03-29T19:17:13.036Z,100560.53
2023-03-29T19:19:40.062Z,100575.25
2023-03-29T19:22:07.108Z,100566.00
2023-03-29T19:24:34.050Z,100568.50
2023-03-29T19:27:02.005Z,100572.91
2023-03-29T19:29:29.180Z,100568.63
2023-03-29T19:31:57.360Z,100568.72
2023-03-29T19:34:24.858Z,100565.47
2023-03-29T19:36:53.728Z,100556.63
2023-03-29T19:39:21.297Z,100551.63
2023-03-29T19:41:48.803Z,100553.41
2023-03-29T19:44:15.934Z,100559.59
2023-03-29T19:46:42.891Z,100556.13
2023-03-29T19:49:13.787Z,100557.16
2023-03-29T19:51:44.478Z,100571.34
2023-03-29T19:54:13.495Z,100580.19
2023-03-29T19:56:43.074Z,100589.09
2023-03-29T19:59:11.346Z,100583.94
2023-03-29T20:01:40.854Z,100583.13
2023-03-29T20:04:08.012Z,100586.81
2023-03-29T20:06:35.268Z,100587.63
2023-03-29T20:09:05.150Z,100571.25
2023-03-29T20:11:32.195Z,100572.31
2023-03-29T20:13:59.149Z,100567.16
2023-03-29T20:16:27.311Z,100571.56
2023-03-29T20:18:54.368Z,100564.63
2023-03-29T20:21:21.432Z,100545.63
2023-03-29T20:23:48.404Z,100554.66
2023-03-29T20:26:15.549Z,100547.91
2023-03-29T20:28:42.775Z,100549.81
2023-03-29T20:31:12.449Z,100547.63
2023-03-29T20:33:39.969Z,100539.22
2023-03-29T20:36:07.337Z,100542.13
2023-03-29T20:38:35.923Z,100541.53
2023-03-29T20:41:04.594Z,100547.81
2023-03-29T20:43:37.616Z,100551.47
2023-03-29T20:46:06.027Z,100554.09
2023-03-29T20:48:33.104Z,100558.38
2023-03-29T20:51:03.360Z,100555.03
2023-03-29T20:53:34.409Z,100549.91
2023-03-29T20:56:01.339Z,100554.09
2023-03-29T20:58:29.231Z,100542.66
2023-03-29T21:01:00.318Z,100551.38
2023-03-29T21:03:27.344Z,100552.22
2023-03-29T21:05:55.315Z,100553.06
2023-03-29T21:08:22.302Z,100552.94
2023-03-29T21:10:49.260Z,100558.09
2023-03-29T21:13:18.392Z,100551.06
2023-03-29T21:15:46.655Z,100551.69
2023-03-29T21:18:14.314Z,100550.78
2023-03-29T21:20:41.583Z,100554.13
2023-03-29T21:23:08.503Z,100548.75
2023-03-29T21:25:35.606Z,100547.41
2023-03-29T21:28:02.640Z,100558.84
2023-03-29T21:30:31.920Z,100546.66
2023-03-29T21:32:59.300Z,100550.13
2023-03-29T21:35:26.329Z,100534.50
2023-03-29T21:37:53.349Z,100539.00
2023-03-29T21:40:20.388Z,100536.50
2023-03-29T21:42:47.301Z,100532.16
2023-03-29T21:45:14.345Z,100532.28
2023-03-29T21:47:41.465Z,100522.72
2023-03-29T21:50:09.653Z,100525.47
2023-03-29T21:52:37.963Z,100528.09
2023-03-29T21:55:08.704Z,100512.47
2023-03-29T21:57:35.744Z,100521.69
2023-03-29T22:00:03.841Z,100518.13
2023-03-29T22:02:31.232Z,100508.28
2023-03-29T22:04:58.265Z,100515.72
2023-03-29T22:07:25.294Z,100511.19
2023-03-29T22:09:52.294Z,100505.75
2023-03-29T22:12:19.212Z,100492.81
2023-03-29T22:14:46.338Z,100501.00
2023-03-29T22:17:13.739Z,100499.88
2023-03-29T22:19:41.914Z,100497.13
2023-03-29T22:22:13.898Z,100496.91
2023-03-29T22:24:42.347Z,100485.56
2023-03-29T22:27:10.663Z,100490.63
2023-03-29T22:29:37.766Z,100493.97
2023-03-29T22:32:04.999Z,100493.03
2023-03-29T22:34:32.588Z,100480.53
2023-03-29T22:36:59.581Z,100482.09
2023-03-29T22:39:26.984Z,100482.00
2023-03-29T22:41:53.943Z,100481.66
2023-03-29T22:44:21.113Z,100475.50
2023-03-29T22:46:51.314Z,100470.97
2023-03-29T22:49:18.272Z,100473.47
2023-03-29T22:51:45.650Z,100470.00
2023-03-29T22:54:13.147Z,100452.16
2023-03-29T22:56:40.886Z,100462.03
2023-03-29T22:59:08.068Z,100471.25
2023-03-29T23:01:35.114Z,100468.63
2023-03-29T23:04:02.203Z,100472.94
2023-03-29T23:06:29.258Z,100471.34
2023-03-29T23:08:56.328Z,100468.13
2023-03-29T23:11:23.394Z,100476.19
2023-03-29T23:13:51.248Z,100472.72
2023-03-29T23:16:20.966Z,100470.22
2023-03-29T23:18:48.365Z,100477.03
2023-03-29T23:21:15.533Z,100473.09
2023-03-29T23:23:43.548Z,100481.63
2023-03-29T23:26:11.269Z,100479.63
2023-03-29T23:28:38.470Z,100478.56
2023-03-29T23:31:13.567Z,100471.28
2023-03-29T23:33:43.013Z,100473.19
2023-03-29T23:36:12.524Z,100471.41
2023-03-29T23:38:40.234Z,100472.84
2023-03-29T23:41:10.564Z,100468.44
2023-03-29T23:43:42.992Z,100470.97
2023-03-29T23:46:13.359Z,100465.81
2023-03-29T23:48:40.469Z,100459.00
2023-03-29T23:51:08.379Z,100457.94
2023-03-29T23:53:35.543Z,100457.22
2023-03-29T23:56:04.554Z,100461.63
2023-03-29T23:58:34.377Z,100459.13
